Time;durP1;ratioP1;P1;durP2;ratioP2;P2;SDS_P1;SDS_P2;PMS_P1;PMS_P2;Temp;Humidity;BMP_temperature;BMP_pressure;BME280_temperature;BME280_humidity;BME280_pressure;Samples;Min_cycle;Max_cycle;Signal;HPM_P1;HPM_P2
2023/09/04 00:01:38;;;;;;;13.20;8.68;;;14.30;99.90;;;;;;5043725;28;20032;-63
2023/09/04 00:04:05;;;;;;;11.43;8.57;;;14.30;99.90;;;;;;5046935;28;20065;-63
2023/09/04 00:06:30;;;;;;;15.18;9.00;;;14.30;99.90;;;;;;5037073;28;20053;-63
2023/09/04 00:08:58;;;;;;;15.13;9.98;;;14.30;99.90;;;;;;5043744;28;20190;-63
2023/09/04 00:11:28;;;;;;;14.60;7.60;;;14.30;99.90;;;;;;5043469;28;20056;-63
2023/09/04 00:13:53;;;;;;;9.55;7.32;;;14.40;99.90;;;;;;5037055;28;20430;-63
2023/09/04 00:16:19;;;;;;;16.30;8.50;;;14.40;99.90;;;;;;5035401;28;20032;-63
2023/09/04 00:18:45;;;;;;;15.32;8.10;;;14.30;99.90;;;;;;5050151;28;20483;-63
2023/09/04 00:21:11;;;;;;;12.75;8.48;;;14.30;99.90;;;;;;5046655;28;20438;-63
2023/09/04 00:23:36;;;;;;;13.35;8.65;;;14.30;99.90;;;;;;5041845;28;20514;-63
2023/09/04 00:26:02;;;;;;;12.65;7.80;;;14.30;99.90;;;;;;5050413;28;20028;-62
2023/09/04 00:28:28;;;;;;;12.98;7.47;;;14.30;99.90;;;;;;5049653;28;20387;-63
2023/09/04 00:30:54;;;;;;;13.20;7.97;;;14.30;99.90;;;;;;5043492;28;20746;-64
2023/09/04 00:33:19;;;;;;;11.13;8.60;;;14.30;99.90;;;;;;5054866;28;20028;-63
2023/09/04 00:35:45;;;;;;;13.25;8.77;;;14.30;99.90;;;;;;5042359;28;20018;-63
2023/09/04 00:38:10;;;;;;;12.18;8.25;;;14.20;99.90;;;;;;5051683;28;20053;-63
2023/09/04 00:40:36;;;;;;;13.77;8.65;;;14.10;99.90;;;;;;5043876;28;20025;-63
2023/09/04 00:43:02;;;;;;;16.20;9.23;;;14.20;99.90;;;;;;5042622;28;20487;-63
2023/09/04 00:45:28;;;;;;;18.48;9.20;;;14.10;99.90;;;;;;5039888;28;20037;-63
2023/09/04 00:47:53;;;;;;;13.98;9.07;;;14.10;99.90;;;;;;5044730;28;20391;-63
2023/09/04 00:50:23;;;;;;;12.23;9.45;;;14.10;99.90;;;;;;5044405;28;20029;-63
2023/09/04 00:52:50;;;;;;;14.15;9.00;;;14.10;99.90;;;;;;5044649;28;20025;-63
2023/09/04 00:55:17;;;;;;;17.08;9.82;;;14.10;99.90;;;;;;5042406;28;20022;-63
2023/09/04 00:57:44;;;;;;;17.95;9.60;;;14.10;99.90;;;;;;5047620;28;20480;-63
2023/09/04 01:00:12;;;;;;;15.57;9.18;;;14.10;99.90;;;;;;5045597;28;20085;-63
2023/09/04 01:02:38;;;;;;;13.60;8.63;;;14.10;99.90;;;;;;5050346;28;20021;-63
2023/09/04 01:05:04;;;;;;;13.05;8.45;;;14.20;99.90;;;;;;5045450;28;20448;-63
2023/09/04 01:07:31;;;;;;;11.73;8.38;;;14.20;99.90;;;;;;5043753;28;20120;-63
2023/09/04 01:09:57;;;;;;;11.68;7.82;;;14.20;99.90;;;;;;5045277;28;20033;-63
2023/09/04 01:12:28;;;;;;;10.05;7.38;;;14.30;99.90;;;;;;5047938;28;20459;-63
2023/09/04 01:14:55;;;;;;;11.55;7.55;;;14.20;99.90;;;;;;5045547;28;21477;-61
2023/09/04 01:17:22;;;;;;;16.63;8.40;;;14.10;99.90;;;;;;5043254;28;20165;-63
2023/09/04 01:19:48;;;;;;;12.90;8.82;;;14.10;99.90;;;;;;5046347;28;20398;-63
2023/09/04 01:22:13;;;;;;;17.70;8.88;;;14.00;99.90;;;;;;5045559;28;20033;-63
2023/09/04 01:24:39;;;;;;;13.02;8.40;;;14.00;99.90;;;;;;5057631;28;20041;-63
2023/09/04 01:27:32;;;;;;;17.17;8.93;;;14.00;99.90;;;;;;5044467;28;20025;-61
2023/09/04 01:30:26;;;;;;;13.80;8.68;;;14.00;99.90;;;;;;5043095;28;20598;-63
2023/09/04 01:33:00;;;;;;;21.48;8.73;;;13.90;99.90;;;;;;5036916;28;20044;-62
2023/09/04 01:35:29;;;;;;;13.95;9.77;;;13.90;99.90;;;;;;5047754;28;20054;-61
2023/09/04 01:37:55;;;;;;;13.95;9.15;;;13.90;99.90;;;;;;5044874;28;20017;-62
2023/09/04 01:40:20;;;;;;;16.83;9.82;;;13.90;99.90;;;;;;5051658;28;20056;-63
2023/09/04 01:42:46;;;;;;;16.35;10.52;;;13.90;99.90;;;;;;5039731;28;20030;-62
2023/09/04 01:45:11;;;;;;;15.02;9.85;;;13.80;99.90;;;;;;5054624;28;20131;-62
2023/09/04 01:47:37;;;;;;;14.98;9.98;;;13.90;99.90;;;;;;5039184;28;20410;-62
2023/09/04 01:50:03;;;;;;;12.98;9.25;;;13.90;99.90;;;;;;5042694;28;20041;-64
2023/09/04 01:52:28;;;;;;;17.17;9.05;;;13.90;99.90;;;;;;5043437;28;20032;-63
2023/09/04 01:54:54;;;;;;;15.80;9.80;;;13.90;99.90;;;;;;5052165;28;20114;-64
2023/09/04 01:57:19;;;;;;;20.40;10.25;;;13.80;99.90;;;;;;5045539;28;20506;-63
2023/09/04 01:59:45;;;;;;;15.68;11.00;;;13.80;99.90;;;;;;5044979;28;20017;-64
2023/09/04 02:02:10;;;;;;;17.00;10.57;;;13.80;99.90;;;;;;5044191;28;20502;-60
2023/09/04 02:04:36;;;;;;;14.32;9.80;;;13.80;99.90;;;;;;5044922;28;20048;-61
2023/09/04 02:07:01;;;;;;;13.27;9.18;;;13.80;99.90;;;;;;5038473;28;20041;-64
2023/09/04 02:09:27;;;;;;;21.35;9.90;;;13.80;99.90;;;;;;5046377;28;20040;-61
2023/09/04 02:11:52;;;;;;;12.10;7.97;;;13.80;99.90;;;;;;5044427;28;20038;-64
2023/09/04 02:14:18;;;;;;;16.10;8.50;;;13.80;99.90;;;;;;5046505;28;20025;-63
2023/09/04 02:16:44;;;;;;;16.33;8.60;;;13.80;99.90;;;;;;5036684;28;20055;-63
2023/09/04 02:19:09;;;;;;;14.20;8.75;;;13.80;99.90;;;;;;5044251;28;20055;-63
2023/09/04 02:21:35;;;;;;;11.98;8.20;;;13.80;99.90;;;;;;5044698;28;20033;-63
2023/09/04 02:24:01;;;;;;;14.95;8.82;;;13.80;99.90;;;;;;5047658;28;20029;-62
2023/09/04 02:26:27;;;;;;;13.13;8.88;;;13.70;99.90;;;;;;5041980;28;20033;-63
2023/09/04 02:28:52;;;;;;;14.27;8.77;;;13.70;99.90;;;;;;5043201;28;20580;-62
2023/09/04 02:31:18;;;;;;;14.57;9.32;;;13.70;99.90;;;;;;5047501;28;20029;-62
2023/09/04 02:33:44;;;;;;;16.42;8.73;;;13.60;99.90;;;;;;5042693;28;20022;-63
2023/09/04 02:36:10;;;;;;;14.05;9.40;;;13.60;99.90;;;;;;5047432;28;20032;-63
2023/09/04 02:38:35;;;;;;;13.25;9.00;;;13.60;99.90;;;;;;5038624;28;20029;-62
2023/09/04 02:41:01;;;;;;;16.27;9.45;;;13.50;99.90;;;;;;5043376;28;20502;-62
2023/09/04 02:43:26;;;;;;;15.13;8.38;;;13.50;99.90;;;;;;5043560;28;20515;-63
2023/09/04 02:45:52;;;;;;;15.43;9.10;;;13.40;99.90;;;;;;5040142;28;20076;-62
2023/09/04 02:48:18;;;;;;;13.77;9.18;;;13.50;99.90;;;;;;5032536;28;20040;-62
2023/09/04 02:50:43;;;;;;;13.93;8.65;;;13.40;99.90;;;;;;5038434;28;20029;-62
2023/09/04 02:53:09;;;;;;;17.42;9.95;;;13.50;99.90;;;;;;5039196;28;20120;-63
2023/09/04 02:55:35;;;;;;;16.23;9.80;;;13.40;99.90;;;;;;5043960;28;20075;-63
2023/09/04 02:58:00;;;;;;;13.40;9.77;;;13.40;99.90;;;;;;5041203;28;20045;-63
2023/09/04 03:00:26;;;;;;;17.45;9.85;;;13.40;99.90;;;;;;5046466;28;20028;-63
2023/09/04 03:02:52;;;;;;;15.32;10.65;;;13.40;99.90;;;;;;5036608;28;20098;-63
2023/09/04 03:05:17;;;;;;;20.40;10.10;;;13.30;99.90;;;;;;5036454;28;20026;-62
2023/09/04 03:07:43;;;;;;;18.70;10.02;;;13.30;99.90;;;;;;5040465;28;20032;-62
2023/09/04 03:10:09;;;;;;;16.85;8.93;;;13.30;99.90;;;;;;5044697;28;20021;-63
2023/09/04 03:12:35;;;;;;;15.73;10.02;;;13.30;99.90;;;;;;5041037;28;20032;-63
2023/09/04 03:15:05;;;;;;;14.15;9.32;;;13.20;99.90;;;;;;5043258;28;20017;-63
2023/09/04 03:17:32;;;;;;;16.27;9.68;;;13.30;99.90;;;;;;5038828;28;20029;-63
2023/09/04 03:19:59;;;;;;;17.88;9.00;;;13.30;99.90;;;;;;5038635;28;20036;-63
2023/09/04 03:22:25;;;;;;;13.82;10.00;;;13.20;99.90;;;;;;5036435;28;20118;-63
2023/09/04 03:24:52;;;;;;;16.98;9.77;;;13.20;99.90;;;;;;5045037;28;20665;-62
2023/09/04 03:27:18;;;;;;;14.45;9.48;;;13.20;99.90;;;;;;5042799;28;20032;-61
2023/09/04 03:29:43;;;;;;;14.80;10.00;;;13.10;99.90;;;;;;5044700;28;20060;-62
2023/09/04 03:32:09;;;;;;;16.30;9.55;;;13.10;99.90;;;;;;5043606;28;20107;-62
2023/09/04 03:34:36;;;;;;;15.73;9.65;;;13.10;99.90;;;;;;5039425;28;20395;-61
2023/09/04 03:37:02;;;;;;;21.98;10.02;;;13.10;99.90;;;;;;5040935;28;20063;-62
2023/09/04 03:39:27;;;;;;;14.52;9.88;;;13.10;99.90;;;;;;5046648;28;20033;-62
2023/09/04 03:41:53;;;;;;;14.55;9.75;;;13.00;99.90;;;;;;5041131;28;20037;-62
2023/09/04 03:44:19;;;;;;;17.00;10.25;;;13.10;99.90;;;;;;5043736;28;20479;-62
2023/09/04 03:46:44;;;;;;;13.30;9.48;;;13.00;99.90;;;;;;5044312;28;20510;-62
2023/09/04 03:49:11;;;;;;;15.57;9.65;;;13.00;99.90;;;;;;5040156;28;20048;-62
2023/09/04 03:51:37;;;;;;;21.52;10.45;;;12.90;99.90;;;;;;5043638;28;20081;-63
2023/09/04 03:54:03;;;;;;;16.48;9.98;;;12.90;99.90;;;;;;5044276;28;20418;-62
2023/09/04 03:56:29;;;;;;;17.10;10.65;;;12.90;99.90;;;;;;5047068;28;20156;-62
2023/09/04 03:58:56;;;;;;;17.40;10.52;;;12.90;99.90;;;;;;5038917;28;20502;-63
2023/09/04 04:01:25;;;;;;;20.38;10.05;;;12.80;99.90;;;;;;5048129;28;20044;-62
2023/09/04 04:03:50;;;;;;;20.63;11.27;;;12.80;99.90;;;;;;5038852;28;20053;-61
2023/09/04 04:06:16;;;;;;;16.95;9.85;;;12.80;99.90;;;;;;5044593;28;20062;-62
2023/09/04 04:08:43;;;;;;;17.88;10.60;;;12.70;99.90;;;;;;5046660;28;20387;-61
2023/09/04 04:11:10;;;;;;;20.73;10.00;;;12.70;99.90;;;;;;5036868;28;20030;-62
2023/09/04 04:13:35;;;;;;;22.73;11.98;;;12.70;99.90;;;;;;5049589;28;20017;-61
2023/09/04 04:16:02;;;;;;;17.55;10.98;;;12.70;99.90;;;;;;5036161;28;20044;-61
2023/09/04 04:18:29;;;;;;;20.33;10.25;;;12.70;99.90;;;;;;5039157;28;20029;-62
2023/09/04 04:20:55;;;;;;;19.10;10.63;;;12.70;99.90;;;;;;5043562;28;20061;-62
2023/09/04 04:23:20;;;;;;;19.10;10.43;;;12.70;99.90;;;;;;5041888;28;20073;-63
2023/09/04 04:25:51;;;;;;;15.43;10.43;;;12.70;99.90;;;;;;5041661;28;20041;-62
2023/09/04 04:28:19;;;;;;;21.25;9.85;;;12.70;99.90;;;;;;5041508;28;20064;-62
2023/09/04 04:30:45;;;;;;;15.02;10.35;;;12.60;99.90;;;;;;5038865;28;20029;-62
2023/09/04 04:33:10;;;;;;;21.83;10.57;;;12.60;99.90;;;;;;5043531;28;20078;-62
2023/09/04 04:35:36;;;;;;;21.33;10.60;;;12.60;99.90;;;;;;5041080;28;20365;-62
2023/09/04 04:38:01;;;;;;;18.38;10.55;;;12.60;99.90;;;;;;5039452;28;20123;-54
2023/09/04 04:40:28;;;;;;;17.02;10.73;;;12.60;99.90;;;;;;5039017;28;20035;-59
2023/09/04 04:42:54;;;;;;;15.27;10.18;;;12.60;99.90;;;;;;5042111;28;20030;-56
2023/09/04 04:45:20;;;;;;;16.10;10.13;;;12.60;99.90;;;;;;5041664;28;20154;-58
2023/09/04 04:47:45;;;;;;;15.65;9.43;;;12.60;99.90;;;;;;5037466;28;20135;-58
2023/09/04 04:50:11;;;;;;;12.50;9.20;;;12.70;99.90;;;;;;5035702;28;20036;-56
2023/09/04 04:52:36;;;;;;;15.23;9.80;;;12.70;99.90;;;;;;5045876;28;20136;-60
2023/09/04 04:55:02;;;;;;;16.58;8.90;;;12.70;99.90;;;;;;5047189;28;20090;-57
2023/09/04 04:57:28;;;;;;;13.30;9.10;;;12.70;99.90;;;;;;5037288;28;20541;-55
2023/09/04 04:59:53;;;;;;;16.88;9.52;;;12.70;99.90;;;;;;5039171;28;20029;-59
2023/09/04 05:02:21;;;;;;;12.45;9.38;;;12.80;99.90;;;;;;5042806;28;20083;-55
2023/09/04 05:04:47;;;;;;;20.58;10.77;;;12.70;99.90;;;;;;5041696;28;20519;-56
2023/09/04 05:07:13;;;;;;;15.88;9.75;;;12.70;99.90;;;;;;5037549;28;20060;-57
2023/09/04 05:09:39;;;;;;;13.90;8.93;;;12.70;99.90;;;;;;5038765;28;20211;-57
2023/09/04 05:12:05;;;;;;;14.43;9.10;;;12.70;99.90;;;;;;5040586;28;20567;-54
2023/09/04 05:14:31;;;;;;;14.80;9.40;;;12.80;99.90;;;;;;5043580;28;20022;-59
2023/09/04 05:16:56;;;;;;;13.70;9.30;;;12.80;99.90;;;;;;5039379;28;20043;-55
2023/09/04 05:19:22;;;;;;;12.88;9.25;;;12.70;99.90;;;;;;5049422;28;20021;-54
2023/09/04 05:21:48;;;;;;;16.73;8.95;;;12.80;99.90;;;;;;5043461;28;20045;-56
2023/09/04 05:24:14;;;;;;;18.85;9.90;;;12.80;99.90;;;;;;5039083;28;20039;-58
2023/09/04 05:26:40;;;;;;;12.27;8.98;;;12.80;99.90;;;;;;5036105;28;20085;-57
2023/09/04 05:29:05;;;;;;;21.25;9.68;;;12.80;99.90;;;;;;5046469;28;20025;-54
2023/09/04 05:31:31;;;;;;;16.95;10.82;;;12.80;99.90;;;;;;5044122;28;20435;-54
2023/09/04 05:33:57;;;;;;;17.85;10.05;;;12.90;99.90;;;;;;5042229;28;20032;-54
2023/09/04 05:36:22;;;;;;;19.63;9.85;;;12.90;99.90;;;;;;5041583;28;20067;-57
2023/09/04 05:38:48;;;;;;;16.00;10.35;;;13.00;99.90;;;;;;5045365;28;20718;-55
2023/09/04 05:41:14;;;;;;;13.73;9.70;;;12.90;99.90;;;;;;5047990;28;20480;-54
2023/09/04 05:43:40;;;;;;;17.17;9.95;;;13.00;99.90;;;;;;5043367;28;20068;-54
2023/09/04 05:46:06;;;;;;;19.50;9.60;;;13.00;99.90;;;;;;5040993;28;20476;-56
2023/09/04 05:48:33;;;;;;;23.85;11.02;;;13.10;99.90;;;;;;5045648;28;20021;-57
2023/09/04 05:51:00;;;;;;;21.17;10.20;;;13.10;99.90;;;;;;5043499;28;20056;-54
2023/09/04 05:53:26;;;;;;;15.35;10.85;;;13.20;99.90;;;;;;5054739;28;20437;-56
2023/09/04 05:56:09;;;;;;;20.23;12.25;;;13.20;99.90;;;;;;5050136;28;20033;-57
2023/09/04 05:58:46;;;;;;;20.15;11.52;;;13.20;99.90;;;;;;5038090;28;20511;-54
2023/09/04 06:01:12;;;;;;;13.73;9.85;;;13.30;99.90;;;;;;5042144;28;20082;-56
2023/09/04 06:03:39;;;;;;;17.75;11.00;;;13.30;99.90;;;;;;5040309;28;20029;-55
2023/09/04 06:06:05;;;;;;;17.48;11.05;;;13.30;99.90;;;;;;5039973;28;20029;-58
2023/09/04 06:08:31;;;;;;;18.63;11.80;;;13.40;99.90;;;;;;5040100;28;20029;-57
2023/09/04 06:10:57;;;;;;;17.95;11.13;;;13.50;99.90;;;;;;5038624;28;20032;-56
2023/09/04 06:13:22;;;;;;;20.23;12.30;;;13.50;99.90;;;;;;5041840;28;20029;-58
2023/09/04 06:15:51;;;;;;;22.08;12.25;;;13.50;99.90;;;;;;5040397;28;20049;-57
2023/09/04 06:18:19;;;;;;;17.13;11.18;;;13.60;99.90;;;;;;5043466;28;20040;-59
2023/09/04 06:20:45;;;;;;;24.15;12.55;;;13.70;99.90;;;;;;5043775;28;20032;-56
2023/09/04 06:23:10;;;;;;;20.15;12.23;;;13.80;99.90;;;;;;5048475;28;20053;-55
2023/09/04 06:25:39;;;;;;;16.85;11.63;;;13.80;99.90;;;;;;5044861;28;20487;-57
2023/09/04 06:28:09;;;;;;;23.85;11.65;;;13.90;99.90;;;;;;5036075;28;20396;-60
2023/09/04 06:30:36;;;;;;;17.67;10.30;;;13.90;99.90;;;;;;5046267;28;20399;-55
2023/09/04 06:33:02;;;;;;;15.23;10.35;;;14.00;99.90;;;;;;5042839;28;20025;-56
2023/09/04 06:35:28;;;;;;;16.10;10.68;;;14.00;99.90;;;;;;5041837;28;20123;-59
2023/09/04 06:37:54;;;;;;;20.05;11.02;;;14.10;99.90;;;;;;5044586;28;20466;-54
2023/09/04 06:40:20;;;;;;;17.20;11.18;;;14.10;99.90;;;;;;5046520;28;20049;-58
2023/09/04 06:42:46;;;;;;;16.30;10.48;;;14.20;99.90;;;;;;5043578;28;20509;-57
2023/09/04 06:45:12;;;;;;;16.30;10.13;;;14.30;99.90;;;;;;5041611;28;20052;-60
2023/09/04 06:47:38;;;;;;;13.40;8.43;;;14.30;99.90;;;;;;5044694;28;20064;-57
2023/09/04 06:50:05;;;;;;;14.75;9.23;;;14.40;99.90;;;;;;5048387;28;20223;-57
2023/09/04 06:52:31;;;;;;;12.82;8.00;;;14.50;99.90;;;;;;5044182;28;20033;-57
2023/09/04 06:54:56;;;;;;;14.75;10.55;;;14.50;99.90;;;;;;5045716;28;20491;-58
2023/09/04 06:57:22;;;;;;;17.05;10.02;;;14.60;99.90;;;;;;5036080;28;20025;-58
2023/09/04 06:59:47;;;;;;;11.85;8.73;;;14.70;99.90;;;;;;5039954;28;20072;-59
2023/09/04 07:02:13;;;;;;;15.40;8.30;;;14.80;99.90;;;;;;5044275;28;20032;-59
2023/09/04 07:04:38;;;;;;;10.00;7.53;;;14.80;99.90;;;;;;5049327;28;20603;-57
2023/09/04 07:07:04;;;;;;;8.77;6.68;;;14.90;99.90;;;;;;5044149;28;20039;-57
2023/09/04 07:09:29;;;;;;;9.52;7.05;;;15.00;99.90;;;;;;5038628;28;20076;-59
2023/09/04 07:11:55;;;;;;;8.52;6.03;;;15.00;99.90;;;;;;5041172;28;20491;-57
2023/09/04 07:14:20;;;;;;;9.27;5.88;;;15.10;99.90;;;;;;5043988;28;20439;-56
2023/09/04 07:16:46;;;;;;;7.90;5.60;;;15.10;99.90;;;;;;5043153;28;20083;-56
2023/09/04 07:19:11;;;;;;;7.55;5.68;;;15.20;99.90;;;;;;5040023;28;20056;-58
2023/09/04 07:21:37;;;;;;;7.07;5.05;;;15.30;99.90;;;;;;5038083;28;20025;-56
2023/09/04 07:24:03;;;;;;;8.30;4.63;;;15.40;99.90;;;;;;5044635;28;20022;-56
2023/09/04 07:26:29;;;;;;;7.03;4.88;;;15.50;99.90;;;;;;5043258;28;20029;-57
2023/09/04 07:28:55;;;;;;;6.45;5.10;;;15.50;99.90;;;;;;5036966;28;20031;-58
2023/09/04 07:31:21;;;;;;;12.55;4.40;;;15.60;99.90;;;;;;5045587;28;20091;-55
2023/09/04 07:33:48;;;;;;;5.90;4.10;;;15.70;99.90;;;;;;5050100;28;20072;-57
2023/09/04 07:36:13;;;;;;;7.68;4.40;;;15.70;99.90;;;;;;5041982;28;20037;-57
2023/09/04 07:38:39;;;;;;;5.05;4.35;;;15.80;99.90;;;;;;5040359;28;20107;-58
2023/09/04 07:41:05;;;;;;;8.57;3.88;;;15.90;99.90;;;;;;5055894;28;20029;-59
2023/09/04 07:43:31;;;;;;;5.05;3.72;;;16.00;99.90;;;;;;5042140;28;20116;-56
2023/09/04 07:45:57;;;;;;;6.78;4.03;;;16.00;99.90;;;;;;5042706;28;20048;-57
2023/09/04 07:48:23;;;;;;;5.80;3.72;;;16.10;99.90;;;;;;5041265;28;20480;-55
2023/09/04 07:50:54;;;;;;;4.75;3.75;;;16.20;99.90;;;;;;5041048;28;20453;-57
2023/09/04 07:53:21;;;;;;;8.23;4.10;;;16.30;99.90;;;;;;5046053;28;20388;-57
2023/09/04 07:55:47;;;;;;;5.68;3.47;;;16.40;99.90;;;;;;5040603;28;20067;-57
2023/09/04 07:58:13;;;;;;;8.75;5.10;;;16.40;99.90;;;;;;5031963;28;20028;-57
2023/09/04 08:00:47;;;;;;;11.80;5.45;;;16.50;99.90;;;;;;5043910;28;20099;-54
2023/09/04 08:03:13;;;;;;;9.05;4.13;;;16.70;99.90;;;;;;5043216;28;20391;-54
2023/09/04 08:05:39;;;;;;;13.95;4.15;;;16.70;99.90;;;;;;5041071;28;20036;-56
2023/09/04 08:08:09;;;;;;;4.97;3.50;;;16.90;99.90;;;;;;5041272;28;20224;-57
2023/09/04 08:10:39;;;;;;;6.45;3.95;;;16.90;99.90;;;;;;5041989;28;20472;-58
2023/09/04 08:13:09;;;;;;;5.68;3.63;;;17.00;99.90;;;;;;5037023;28;20025;-56
2023/09/04 08:15:35;;;;;;;7.07;4.45;;;17.10;99.90;;;;;;5038512;28;20029;-56
2023/09/04 08:18:00;;;;;;;5.60;2.70;;;17.30;99.90;;;;;;5044805;28;20025;-57
2023/09/04 08:20:26;;;;;;;5.75;3.65;;;17.40;99.90;;;;;;5039501;28;20649;-56
2023/09/04 08:22:52;;;;;;;12.45;7.75;;;17.60;99.90;;;;;;5040059;28;20032;-57
2023/09/04 08:25:17;;;;;;;8.55;4.35;;;17.60;99.90;;;;;;5043483;28;20447;-56
2023/09/04 08:27:43;;;;;;;5.25;2.78;;;17.80;99.90;;;;;;5035496;28;20071;-54
2023/09/04 08:30:09;;;;;;;4.30;3.25;;;17.90;99.90;;;;;;5044720;28;20029;-58
2023/09/04 08:32:34;;;;;;;7.18;4.80;;;17.90;99.90;;;;;;5040046;28;20392;-56
2023/09/04 08:35:00;;;;;;;5.18;3.20;;;18.10;99.90;;;;;;5046027;28;20037;-57
2023/09/04 08:37:25;;;;;;;3.30;2.90;;;18.10;99.90;;;;;;5041224;28;20044;-54
2023/09/04 08:39:51;;;;;;;5.00;3.28;;;18.20;99.90;;;;;;5041664;28;20032;-54
2023/09/04 08:42:16;;;;;;;4.13;2.80;;;18.30;99.90;;;;;;5046200;28;20448;-57
2023/09/04 08:44:43;;;;;;;6.57;3.50;;;18.50;99.90;;;;;;5040442;28;20594;-55
2023/09/04 08:47:10;;;;;;;4.43;3.03;;;18.60;99.90;;;;;;5039630;28;20034;-53
2023/09/04 08:49:37;;;;;;;3.83;2.92;;;18.60;99.90;;;;;;5050816;28;20032;-54
2023/09/04 08:52:05;;;;;;;9.98;3.05;;;18.80;99.90;;;;;;5041782;28;20048;-56
2023/09/04 08:54:32;;;;;;;7.43;3.72;;;18.90;99.90;;;;;;5040279;28;20037;-57
2023/09/04 08:56:59;;;;;;;7.43;3.50;;;19.10;99.90;;;;;;5049153;28;20035;-54
2023/09/04 08:59:24;;;;;;;5.80;3.25;;;19.20;99.90;;;;;;5047537;28;20051;-56
2023/09/04 09:01:52;;;;;;;5.70;3.45;;;19.20;99.90;;;;;;5047059;28;20033;-57
2023/09/04 09:04:22;;;;;;;6.32;3.00;;;19.40;99.90;;;;;;5042766;28;20052;-57
2023/09/04 09:06:50;;;;;;;5.88;3.20;;;19.50;99.90;;;;;;5047575;28;20573;-56
2023/09/04 09:09:16;;;;;;;8.30;3.30;;;19.70;99.90;;;;;;5039910;28;20029;-56
2023/09/04 09:11:42;;;;;;;4.38;3.25;;;19.80;99.90;;;;;;5043447;28;20395;-55
2023/09/04 09:14:11;;;;;;;6.57;3.03;;;19.90;99.90;;;;;;5046071;28;20107;-58
2023/09/04 09:16:37;;;;;;;5.05;2.80;;;20.00;99.90;;;;;;5040799;28;20033;-56
2023/09/04 09:19:03;;;;;;;4.70;3.05;;;20.10;99.90;;;;;;5039754;28;20029;-55
2023/09/04 09:21:30;;;;;;;7.95;5.47;;;20.30;99.90;;;;;;5041922;28;20075;-58
2023/09/04 09:24:06;;;;;;;5.20;3.75;;;20.40;99.90;;;;;;5047504;28;20028;-57
2023/09/04 09:26:32;;;;;;;4.88;3.47;;;20.60;99.90;;;;;;5044534;28;20026;-53
2023/09/04 09:29:02;;;;;;;7.05;3.47;;;20.70;99.90;;;;;;5036007;28;20039;-57
2023/09/04 09:31:28;;;;;;;6.70;3.40;;;20.80;99.90;;;;;;5044838;28;20033;-54
2023/09/04 09:33:55;;;;;;;6.10;2.78;;;20.90;99.90;;;;;;5041651;28;20063;-54
2023/09/04 09:36:20;;;;;;;3.95;2.97;;;21.00;99.90;;;;;;5040486;28;20080;-57
2023/09/04 09:38:46;;;;;;;7.13;3.53;;;21.10;99.90;;;;;;5049498;28;20025;-53
2023/09/04 09:41:15;;;;;;;5.82;2.83;;;21.30;99.90;;;;;;5040967;28;20053;-53
2023/09/04 09:43:41;;;;;;;4.45;2.90;;;21.50;99.90;;;;;;5040472;28;20048;-55
2023/09/04 09:46:10;;;;;;;3.95;2.80;;;21.60;99.90;;;;;;5040028;28;20411;-53
2023/09/04 09:48:39;;;;;;;5.90;3.25;;;21.70;99.90;;;;;;5039805;28;20092;-58
2023/09/04 09:51:10;;;;;;;4.85;2.95;;;21.80;99.90;;;;;;5043259;28;20068;-57
2023/09/04 09:53:47;;;;;;;8.98;3.30;;;22.00;99.90;;;;;;5046848;28;21503;-55
2023/09/04 09:56:14;;;;;;;5.32;3.00;;;22.30;99.90;;;;;;5039605;28;20032;-53
2023/09/04 09:58:45;;;;;;;6.15;2.65;;;22.40;99.90;;;;;;5036190;28;20033;-57
2023/09/04 10:01:14;;;;;;;7.22;2.90;;;22.60;99.90;;;;;;5039518;28;20025;-55
2023/09/04 10:03:40;;;;;;;6.43;2.65;;;22.70;99.90;;;;;;5043959;28;20108;-54
2023/09/04 10:06:08;;;;;;;5.45;3.30;;;22.90;99.90;;;;;;5042738;28;20100;-53
2023/09/04 10:08:42;;;;;;;8.38;2.95;;;22.90;99.90;;;;;;5045273;28;20155;-55
2023/09/04 10:11:13;;;;;;;2.90;2.63;;;22.90;99.90;;;;;;5034501;28;20120;-57
2023/09/04 10:13:54;;;;;;;3.35;2.22;;;23.10;99.90;;;;;;5037727;28;20041;-53
2023/09/04 10:16:33;;;;;;;3.05;1.95;;;23.40;99.90;;;;;;5039036;28;20029;-54
2023/09/04 10:19:02;;;;;;;5.05;2.72;;;23.50;99.90;;;;;;5039997;28;20452;-57
2023/09/04 10:21:33;;;;;;;3.83;2.70;;;23.70;99.90;;;;;;5038128;28;20120;-58
2023/09/04 10:24:03;;;;;;;8.60;2.42;;;23.80;99.90;;;;;;5046838;28;20028;-57
2023/09/04 10:26:57;;;;;;;5.30;2.60;;;24.10;99.90;;;;;;5037370;28;20040;-57
2023/09/04 10:29:25;;;;;;;4.75;2.45;;;24.30;99.90;;;;;;5036275;28;20041;-55
2023/09/04 10:31:52;;;;;;;6.35;2.60;;;24.30;99.90;;;;;;5041264;28;20464;-56
2023/09/04 10:34:19;;;;;;;6.90;2.95;;;24.50;99.90;;;;;;5042265;28;20447;-59
2023/09/04 10:36:46;;;;;;;3.20;2.35;;;24.70;99.90;;;;;;5050059;28;20097;-57
2023/09/04 10:39:12;;;;;;;3.15;2.40;;;24.80;99.90;;;;;;5040835;28;20033;-54
2023/09/04 10:41:38;;;;;;;5.03;2.53;;;24.70;99.90;;;;;;5046028;28;20048;-57
2023/09/04 10:44:04;;;;;;;2.35;2.15;;;25.00;99.90;;;;;;5037219;28;20492;-55
2023/09/04 10:46:30;;;;;;;3.88;2.22;;;25.10;99.90;;;;;;5045000;28;20029;-57
2023/09/04 10:48:55;;;;;;;2.30;2.08;;;25.10;99.90;;;;;;5042907;28;20028;-57
2023/09/04 10:51:35;;;;;;;4.60;2.25;;;25.00;99.90;;;;;;5046536;28;20037;-57
2023/09/04 10:54:07;;;;;;;6.63;2.72;;;25.10;99.90;;;;;;5040367;28;20024;-55
2023/09/04 10:56:52;;;;;;;3.60;2.05;;;24.90;99.90;;;;;;5048895;28;20071;-57
2023/09/04 10:59:17;;;;;;;5.57;2.55;;;25.10;99.90;;;;;;5034674;28;20417;-57
2023/09/04 11:01:43;;;;;;;2.88;2.13;;;25.20;99.90;;;;;;5040394;28;20078;-56
2023/09/04 11:04:08;;;;;;;4.47;2.28;;;25.30;99.90;;;;;;5036790;28;20028;-55
2023/09/04 11:06:39;;;;;;;4.70;2.10;;;25.40;99.90;;;;;;5046313;28;20029;-55
2023/09/04 11:09:05;;;;;;;4.15;2.25;;;25.50;99.90;;;;;;5041861;28;20025;-53
2023/09/04 11:11:31;;;;;;;4.32;2.78;;;25.70;99.90;;;;;;5043433;28;20109;-53
2023/09/04 11:14:02;;;;;;;7.28;2.20;;;25.70;99.90;;;;;;5044290;28;20067;-57
2023/09/04 11:16:42;;;;;;;4.38;2.45;;;25.80;99.90;;;;;;5044004;28;20029;-57
2023/09/04 11:19:14;;;;;;;2.95;2.25;;;25.90;99.90;;;;;;5043459;28;20037;-54
2023/09/04 11:21:42;;;;;;;6.60;2.42;;;26.10;99.90;;;;;;5037914;28;20326;-55
2023/09/04 11:24:08;;;;;;;5.63;2.33;;;26.10;99.90;;;;;;5042897;28;20036;-55
2023/09/04 11:26:34;;;;;;;3.58;2.17;;;26.20;99.90;;;;;;5043006;28;20399;-53
2023/09/04 11:29:01;;;;;;;5.82;2.17;;;26.10;99.90;;;;;;5045466;28;20580;-57
2023/09/04 11:31:29;;;;;;;2.88;2.08;;;26.30;99.90;;;;;;5041388;28;20508;-57
2023/09/04 11:33:55;;;;;;;4.85;2.70;;;26.40;99.90;;;;;;5047143;28;20033;-58
2023/09/04 11:36:22;;;;;;;5.47;2.38;;;26.60;99.90;;;;;;5038308;28;20125;-57
2023/09/04 11:38:50;;;;;;;6.35;2.42;;;26.70;99.90;;;;;;5043965;28;20067;-55
2023/09/04 11:41:16;;;;;;;4.13;2.63;;;26.90;99.90;;;;;;5037087;28;20083;-57
2023/09/04 11:43:42;;;;;;;6.03;2.40;;;27.10;99.90;;;;;;5040789;28;20392;-55
2023/09/04 11:46:09;;;;;;;3.30;2.42;;;27.20;99.90;;;;;;5043597;28;20107;-56
2023/09/04 11:48:35;;;;;;;2.30;2.10;;;27.40;99.90;;;;;;5045176;28;20475;-54
2023/09/04 11:51:02;;;;;;;3.53;2.63;;;27.60;99.90;;;;;;5038575;28;20051;-55
2023/09/04 11:53:27;;;;;;;2.33;2.00;;;27.30;99.90;;;;;;5038641;28;20083;-56
2023/09/04 11:55:53;;;;;;;4.47;2.15;;;27.40;99.90;;;;;;5042360;28;20431;-55
2023/09/04 11:58:20;;;;;;;10.98;2.78;;;27.40;99.90;;;;;;5045057;28;20430;-54
2023/09/04 12:00:46;;;;;;;4.68;3.10;;;27.60;99.90;;;;;;5039890;28;20071;-53
2023/09/04 12:03:12;;;;;;;5.07;2.40;;;27.90;99.90;;;;;;5036394;28;20029;-53
2023/09/04 12:05:38;;;;;;;4.18;2.38;;;28.00;99.90;;;;;;5043066;28;20046;-58
2023/09/04 12:08:04;;;;;;;5.60;2.30;;;28.10;99.90;;;;;;5039171;28;20025;-57
2023/09/04 12:10:33;;;;;;;2.35;2.00;;;28.10;99.90;;;;;;5039796;28;20050;-54
2023/09/04 12:12:58;;;;;;;2.97;2.10;;;27.70;99.90;;;;;;5041287;28;20037;-57
2023/09/04 12:15:27;;;;;;;9.27;2.00;;;28.10;99.90;;;;;;5037126;28;20124;-56
2023/09/04 12:17:53;;;;;;;3.97;2.05;;;28.20;99.90;;;;;;5044377;28;20025;-58
2023/09/04 12:20:18;;;;;;;4.53;2.20;;;28.40;99.90;;;;;;5042713;28;20074;-55
2023/09/04 12:22:54;;;;;;;5.18;2.20;;;28.30;99.90;;;;;;5039981;28;20045;-55
2023/09/04 12:25:21;;;;;;;3.63;2.35;;;28.60;99.90;;;;;;5050935;28;20033;-58
2023/09/04 12:27:48;;;;;;;6.90;1.95;;;28.80;99.90;;;;;;5044067;28;20513;-56
2023/09/04 12:30:14;;;;;;;3.58;2.20;;;28.90;99.90;;;;;;5045804;28;20037;-57
2023/09/04 12:32:39;;;;;;;4.10;2.00;;;28.80;99.90;;;;;;5047293;28;20025;-57
2023/09/04 12:35:08;;;;;;;2.85;1.95;;;29.00;99.90;;;;;;5045622;28;20106;-56
2023/09/04 12:37:35;;;;;;;5.82;1.92;;;29.00;99.90;;;;;;5042781;28;20060;-58